sensor_id;sensor_type;location;lat;lon;timestamp;temperature;humidity
51739;DHT22;37815;52.692;6.226;2023-03-19T00:02:07;12.30;99.90
51739;DHT22;37815;52.692;6.226;2023-03-19T00:07:08;12.30;99.90
51739;DHT22;37815;52.692;6.226;2023-03-19T00:12:10;12.30;99.90
51739;DHT22;37815;52.692;6.226;2023-03-19T00:17:11;12.30;99.90
51739;DHT22;37815;52.692;6.226;2023-03-19T00:22:12;12.30;99.90
51739;DHT22;37815;52.692;6.226;2023-03-19T00:27:13;12.30;99.90
51739;DHT22;37815;52.692;6.226;2023-03-19T00:32:13;12.30;99.90
51739;DHT22;37815;52.692;6.226;2023-03-19T00:37:14;12.30;99.90
51739;DHT22;37815;52.692;6.226;2023-03-19T00:42:16;12.30;99.90
51739;DHT22;37815;52.692;6.226;2023-03-19T00:47:17;12.30;99.90
51739;DHT22;37815;52.692;6.226;2023-03-19T00:52:18;12.30;99.90
51739;DHT22;37815;52.692;6.226;2023-03-19T00:57:18;12.20;99.90
51739;DHT22;37815;52.692;6.226;2023-03-19T01:02:19;12.20;99.90
51739;DHT22;37815;52.692;6.226;2023-03-19T01:07:20;12.20;99.90
51739;DHT22;37815;52.692;6.226;2023-03-19T01:12:20;12.20;99.90
51739;DHT22;37815;52.692;6.226;2023-03-19T01:17:21;12.20;99.90
51739;DHT22;37815;52.692;6.226;2023-03-19T01:22:21;12.20;99.90
51739;DHT22;37815;52.692;6.226;2023-03-19T01:27:22;12.20;99.90
51739;DHT22;37815;52.692;6.226;2023-03-19T01:32:23;12.30;99.90
51739;DHT22;37815;52.692;6.226;2023-03-19T01:37:23;12.20;99.90
51739;DHT22;37815;52.692;6.226;2023-03-19T01:42:24;12.20;99.90
51739;DHT22;37815;52.692;6.226;2023-03-19T01:47:36;12.20;99.90
51739;DHT22;37815;52.692;6.226;2023-03-19T01:52:38;12.20;99.90
51739;DHT22;37815;52.692;6.226;2023-03-19T01:57:38;12.10;99.90
51739;DHT22;37815;52.692;6.226;2023-03-19T02:02:40;12.10;99.90
51739;DHT22;37815;52.692;6.226;2023-03-19T02:07:44;12.20;99.90
51739;DHT22;37815;52.692;6.226;2023-03-19T02:12:45;12.10;99.90
51739;DHT22;37815;52.692;6.226;2023-03-19T02:17:46;12.20;99.90
51739;DHT22;37815;52.692;6.226;2023-03-19T02:23:05;12.10;99.90
51739;DHT22;37815;52.692;6.226;2023-03-19T02:28:09;12.10;99.90
51739;DHT22;37815;52.692;6.226;2023-03-19T02:33:15;12.10;99.90
51739;DHT22;37815;52.692;6.226;2023-03-19T02:38:17;12.10;99.90
51739;DHT22;37815;52.692;6.226;2023-03-19T02:43:21;12.10;99.90
51739;DHT22;37815;52.692;6.226;2023-03-19T02:48:23;12.10;99.90
51739;DHT22;37815;52.692;6.226;2023-03-19T02:53:28;12.10;99.90
51739;DHT22;37815;52.692;6.226;2023-03-19T02:58:29;12.00;99.90
51739;DHT22;37815;52.692;6.226;2023-03-19T03:03:30;12.00;99.90
51739;DHT22;37815;52.692;6.226;2023-03-19T03:08:30;12.00;99.90
51739;DHT22;37815;52.692;6.226;2023-03-19T03:13:31;12.00;99.90
51739;DHT22;37815;52.692;6.226;2023-03-19T03:18:32;12.00;99.90
51739;DHT22;37815;52.692;6.226;2023-03-19T03:23:32;12.00;99.90
51739;DHT22;37815;52.692;6.226;2023-03-19T03:28:33;12.00;99.90
51739;DHT22;37815;52.692;6.226;2023-03-19T03:33:34;12.00;99.90
51739;DHT22;37815;52.692;6.226;2023-03-19T03:38:35;12.60;99.90
51739;DHT22;37815;52.692;6.226;2023-03-19T03:43:36;12.00;99.90
51739;DHT22;37815;52.692;6.226;2023-03-19T03:48:39;12.00;99.90
51739;DHT22;37815;52.692;6.226;2023-03-19T03:53:39;12.00;99.90
51739;DHT22;37815;52.692;6.226;2023-03-19T03:58:40;11.90;99.90
51739;DHT22;37815;52.692;6.226;2023-03-19T04:03:41;11.90;99.90
51739;DHT22;37815;52.692;6.226;2023-03-19T04:08:42;11.90;99.90
51739;DHT22;37815;52.692;6.226;2023-03-19T04:13:43;11.90;99.90
51739;DHT22;37815;52.692;6.226;2023-03-19T04:18:43;11.90;99.90
51739;DHT22;37815;52.692;6.226;2023-03-19T04:23:44;11.90;99.90
51739;DHT22;37815;52.692;6.226;2023-03-19T04:28:44;11.90;99.90
51739;DHT22;37815;52.692;6.226;2023-03-19T04:33:45;11.90;99.90
51739;DHT22;37815;52.692;6.226;2023-03-19T04:38:46;11.90;99.90
51739;DHT22;37815;52.692;6.226;2023-03-19T04:43:47;11.80;99.90
51739;DHT22;37815;52.692;6.226;2023-03-19T04:48:47;11.80;99.90
51739;DHT22;37815;52.692;6.226;2023-03-19T04:53:48;11.80;99.90
51739;DHT22;37815;52.692;6.226;2023-03-19T04:58:49;11.80;99.90
51739;DHT22;37815;52.692;6.226;2023-03-19T05:03:49;11.80;99.90
51739;DHT22;37815;52.692;6.226;2023-03-19T05:08:50;11.80;99.90
51739;DHT22;37815;52.692;6.226;2023-03-19T05:13:51;11.80;99.90
51739;DHT22;37815;52.692;6.226;2023-03-19T05:18:52;11.80;99.90
51739;DHT22;37815;52.692;6.226;2023-03-19T05:23:52;11.70;99.90
51739;DHT22;37815;52.692;6.226;2023-03-19T05:28:54;11.70;99.90
51739;DHT22;37815;52.692;6.226;2023-03-19T05:33:56;11.70;99.90
51739;DHT22;37815;52.692;6.226;2023-03-19T05:38:57;11.70;99.90
51739;DHT22;37815;52.692;6.226;2023-03-19T05:43:58;11.70;99.90
51739;DHT22;37815;52.692;6.226;2023-03-19T05:48:59;11.60;99.90
51739;DHT22;37815;52.692;6.226;2023-03-19T05:54:00;11.60;99.90
51739;DHT22;37815;52.692;6.226;2023-03-19T05:59:01;11.60;99.90
51739;DHT22;37815;52.692;6.226;2023-03-19T06:04:01;11.60;99.90
51739;DHT22;37815;52.692;6.226;2023-03-19T06:09:02;11.60;99.90
51739;DHT22;37815;52.692;6.226;2023-03-19T06:14:02;11.60;99.90
51739;DHT22;37815;52.692;6.226;2023-03-19T06:19:03;11.60;99.90
51739;DHT22;37815;52.692;6.226;2023-03-19T06:24:04;11.50;99.90
51739;DHT22;37815;52.692;6.226;2023-03-19T06:29:04;11.50;99.90
51739;DHT22;37815;52.692;6.226;2023-03-19T06:34:05;11.50;99.90
51739;DHT22;37815;52.692;6.226;2023-03-19T06:39:06;11.50;99.90
51739;DHT22;37815;52.692;6.226;2023-03-19T06:44:07;11.50;99.90
51739;DHT22;37815;52.692;6.226;2023-03-19T06:49:07;11.50;99.90
51739;DHT22;37815;52.692;6.226;2023-03-19T06:54:08;11.70;99.90
51739;DHT22;37815;52.692;6.226;2023-03-19T06:59:08;11.50;99.90
51739;DHT22;37815;52.692;6.226;2023-03-19T07:04:12;11.50;99.90
51739;DHT22;37815;52.692;6.226;2023-03-19T07:09:13;11.60;99.90
51739;DHT22;37815;52.692;6.226;2023-03-19T07:14:13;11.70;99.90
51739;DHT22;37815;52.692;6.226;2023-03-19T07:19:14;11.50;99.90
51739;DHT22;37815;52.692;6.226;2023-03-19T07:24:15;11.60;99.90
51739;DHT22;37815;52.692;6.226;2023-03-19T07:29:15;11.60;99.90
51739;DHT22;37815;52.692;6.226;2023-03-19T07:34:17;11.60;99.90
51739;DHT22;37815;52.692;6.226;2023-03-19T07:39:18;11.70;99.90
51739;DHT22;37815;52.692;6.226;2023-03-19T07:44:19;11.70;99.90
51739;DHT22;37815;52.692;6.226;2023-03-19T07:49:21;11.70;99.90
51739;DHT22;37815;52.692;6.226;2023-03-19T07:54:21;11.80;99.90
51739;DHT22;37815;52.692;6.226;2023-03-19T07:59:23;11.80;99.90
51739;DHT22;37815;52.692;6.226;2023-03-19T08:04:23;11.80;99.90
51739;DHT22;37815;52.692;6.226;2023-03-19T08:09:24;11.70;99.90
51739;DHT22;37815;52.692;6.226;2023-03-19T08:14:24;11.80;99.90
51739;DHT22;37815;52.692;6.226;2023-03-19T08:19:25;11.80;99.90
51739;DHT22;37815;52.692;6.226;2023-03-19T08:24:26;11.80;99.90
51739;DHT22;37815;52.692;6.226;2023-03-19T08:29:27;11.80;99.90
51739;DHT22;37815;52.692;6.226;2023-03-19T08:34:28;11.80;99.90
51739;DHT22;37815;52.692;6.226;2023-03-19T08:39:29;11.80;99.90
51739;DHT22;37815;52.692;6.226;2023-03-19T08:44:29;11.90;99.90
51739;DHT22;37815;52.692;6.226;2023-03-19T08:49:30;11.90;99.90
51739;DHT22;37815;52.692;6.226;2023-03-19T08:54:31;11.90;99.90
51739;DHT22;37815;52.692;6.226;2023-03-19T08:59:35;12.00;99.90
51739;DHT22;37815;52.692;6.226;2023-03-19T09:04:35;11.90;99.90
51739;DHT22;37815;52.692;6.226;2023-03-19T09:09:39;12.00;99.90
51739;DHT22;37815;52.692;6.226;2023-03-19T09:14:40;12.20;99.90
51739;DHT22;37815;52.692;6.226;2023-03-19T09:19:41;12.00;99.90
51739;DHT22;37815;52.692;6.226;2023-03-19T09:24:41;12.00;99.90
51739;DHT22;37815;52.692;6.226;2023-03-19T09:29:42;12.00;99.90
51739;DHT22;37815;52.692;6.226;2023-03-19T09:34:43;12.00;99.90
51739;DHT22;37815;52.692;6.226;2023-03-19T09:39:43;12.00;99.90
51739;DHT22;37815;52.692;6.226;2023-03-19T09:44:44;12.00;99.90
51739;DHT22;37815;52.692;6.226;2023-03-19T09:49:46;12.00;99.90
51739;DHT22;37815;52.692;6.226;2023-03-19T09:54:52;12.00;99.90
51739;DHT22;37815;52.692;6.226;2023-03-19T09:59:54;12.00;99.90
51739;DHT22;37815;52.692;6.226;2023-03-19T10:05:10;12.00;99.90
51739;DHT22;37815;52.692;6.226;2023-03-19T10:10:31;12.00;99.90
51739;DHT22;37815;52.692;6.226;2023-03-19T10:15:36;12.00;99.90
51739;DHT22;37815;52.692;6.226;2023-03-19T10:26:17;12.00;99.90
51739;DHT22;37815;52.692;6.226;2023-03-19T10:36:39;12.10;99.90
51739;DHT22;37815;52.692;6.226;2023-03-19T10:41:58;12.10;99.90
51739;DHT22;37815;52.692;6.226;2023-03-19T10:47:12;12.10;99.90
51739;DHT22;37815;52.692;6.226;2023-03-19T10:52:23;12.10;99.90
51739;DHT22;37815;52.692;6.226;2023-03-19T10:57:28;12.20;99.90
51739;DHT22;37815;52.692;6.226;2023-03-19T11:02:31;12.20;99.90
51739;DHT22;37815;52.692;6.226;2023-03-19T11:07:35;12.30;99.90
51739;DHT22;37815;52.692;6.226;2023-03-19T11:12:36;12.40;99.80
51739;DHT22;37815;52.692;6.226;2023-03-19T11:18:00;12.40;99.70
51739;DHT22;37815;52.692;6.226;2023-03-19T11:23:12;12.50;99.70
51739;DHT22;37815;52.692;6.226;2023-03-19T11:28:16;13.40;99.80
51739;DHT22;37815;52.692;6.226;2023-03-19T11:44:00;12.80;99.90
51739;DHT22;37815;52.692;6.226;2023-03-19T12:36:42;13.00;99.90
51739;DHT22;37815;52.692;6.226;2023-03-19T12:41:45;13.00;99.90
51739;DHT22;37815;52.692;6.226;2023-03-19T12:47:02;13.00;99.90
51739;DHT22;37815;52.692;6.226;2023-03-19T12:52:37;13.10;99.90
51739;DHT22;37815;52.692;6.226;2023-03-19T12:57:51;13.30;99.90
51739;DHT22;37815;52.692;6.226;2023-03-19T13:08:11;13.40;99.90
51739;DHT22;37815;52.692;6.226;2023-03-19T13:13:46;13.50;99.90
51739;DHT22;37815;52.692;6.226;2023-03-19T13:19:15;13.40;99.90
51739;DHT22;37815;52.692;6.226;2023-03-19T13:29:28;13.40;99.90
51739;DHT22;37815;52.692;6.226;2023-03-19T13:34:35;13.40;99.90
51739;DHT22;37815;52.692;6.226;2023-03-19T13:39:36;13.40;99.90
51739;DHT22;37815;52.692;6.226;2023-03-19T13:44:41;13.40;99.90
51739;DHT22;37815;52.692;6.226;2023-03-19T13:55:30;13.40;99.90
51739;DHT22;37815;52.692;6.226;2023-03-19T14:05:46;13.40;99.90
51739;DHT22;37815;52.692;6.226;2023-03-19T14:10:49;13.50;99.90
51739;DHT22;37815;52.692;6.226;2023-03-19T14:15:52;13.60;99.90
51739;DHT22;37815;52.692;6.226;2023-03-19T14:20:59;13.50;99.90
51739;DHT22;37815;52.692;6.226;2023-03-19T14:26:26;13.50;99.90
51739;DHT22;37815;52.692;6.226;2023-03-19T14:31:45;13.50;99.90
51739;DHT22;37815;52.692;6.226;2023-03-19T14:37:00;13.50;99.90
51739;DHT22;37815;52.692;6.226;2023-03-19T14:48:05;13.40;99.90
51739;DHT22;37815;52.692;6.226;2023-03-19T14:53:18;13.40;99.90
51739;DHT22;37815;52.692;6.226;2023-03-19T14:58:22;13.40;99.90
51739;DHT22;37815;52.692;6.226;2023-03-19T15:03:32;13.30;99.90
51739;DHT22;37815;52.692;6.226;2023-03-19T15:08:36;13.30;99.90
51739;DHT22;37815;52.692;6.226;2023-03-19T15:18:57;13.20;99.90
51739;DHT22;37815;52.692;6.226;2023-03-19T15:23:58;13.20;99.90
51739;DHT22;37815;52.692;6.226;2023-03-19T15:28:59;13.20;99.90
51739;DHT22;37815;52.692;6.226;2023-03-19T15:33:59;13.20;99.90
51739;DHT22;37815;52.692;6.226;2023-03-19T15:39:06;13.10;99.90
51739;DHT22;37815;52.692;6.226;2023-03-19T15:44:54;13.10;99.90
51739;DHT22;37815;52.692;6.226;2023-03-19T15:50:19;13.10;99.90
51739;DHT22;37815;52.692;6.226;2023-03-19T15:55:22;13.10;99.90
51739;DHT22;37815;52.692;6.226;2023-03-19T16:00:24;13.10;99.90
51739;DHT22;37815;52.692;6.226;2023-03-19T16:05:27;13.10;99.90
51739;DHT22;37815;52.692;6.226;2023-03-19T16:15:39;13.00;99.90
51739;DHT22;37815;52.692;6.226;2023-03-19T16:20:42;13.00;99.90
51739;DHT22;37815;52.692;6.226;2023-03-19T16:25:44;13.00;99.90
51739;DHT22;37815;52.692;6.226;2023-03-19T16:30:46;13.00;99.90
51739;DHT22;37815;52.692;6.226;2023-03-19T16:35:51;13.00;99.90
51739;DHT22;37815;52.692;6.226;2023-03-19T16:41:16;13.00;99.90
51739;DHT22;37815;52.692;6.226;2023-03-19T16:46:17;13.00;99.90
51739;DHT22;37815;52.692;6.226;2023-03-19T16:51:20;12.90;99.90
51739;DHT22;37815;52.692;6.226;2023-03-19T16:56:21;12.90;99.90
51739;DHT22;37815;52.692;6.226;2023-03-19T17:01:23;12.90;99.90
51739;DHT22;37815;52.692;6.226;2023-03-19T17:06:24;12.90;99.90
51739;DHT22;37815;52.692;6.226;2023-03-19T17:11:30;12.90;99.90
51739;DHT22;37815;52.692;6.226;2023-03-19T17:16:33;12.80;99.90
51739;DHT22;37815;52.692;6.226;2023-03-19T17:21:34;12.90;99.90
51739;DHT22;37815;52.692;6.226;2023-03-19T17:26:35;12.90;99.90
51739;DHT22;37815;52.692;6.226;2023-03-19T17:31:36;12.90;99.90
51739;DHT22;37815;52.692;6.226;2023-03-19T17:36:41;12.80;99.90
51739;DHT22;37815;52.692;6.226;2023-03-19T17:41:43;12.80;99.90
51739;DHT22;37815;52.692;6.226;2023-03-19T17:46:45;12.80;99.90
51739;DHT22;37815;52.692;6.226;2023-03-19T17:51:48;12.80;99.90
51739;DHT22;37815;52.692;6.226;2023-03-19T17:56:49;12.40;99.90
51739;DHT22;37815;52.692;6.226;2023-03-19T18:01:49;12.70;99.90
51739;DHT22;37815;52.692;6.226;2023-03-19T18:06:52;12.60;99.90
51739;DHT22;37815;52.692;6.226;2023-03-19T18:11:54;12.60;99.90
51739;DHT22;37815;52.692;6.226;2023-03-19T18:16:55;12.60;99.90
51739;DHT22;37815;52.692;6.226;2023-03-19T18:21:55;12.60;99.90
51739;DHT22;37815;52.692;6.226;2023-03-19T18:26:56;12.50;99.90
51739;DHT22;37815;52.692;6.226;2023-03-19T18:32:02;12.50;99.90
51739;DHT22;37815;52.692;6.226;2023-03-19T18:37:03;12.50;99.90
51739;DHT22;37815;52.692;6.226;2023-03-19T18:42:03;12.50;99.90
51739;DHT22;37815;52.692;6.226;2023-03-19T18:47:04;12.50;99.90
51739;DHT22;37815;52.692;6.226;2023-03-19T18:52:05;12.50;99.90
51739;DHT22;37815;52.692;6.226;2023-03-19T18:57:07;12.50;99.90
51739;DHT22;37815;52.692;6.226;2023-03-19T19:02:19;12.50;99.90
51739;DHT22;37815;52.692;6.226;2023-03-19T19:07:20;12.50;99.90
51739;DHT22;37815;52.692;6.226;2023-03-19T19:12:21;12.50;99.90
51739;DHT22;37815;52.692;6.226;2023-03-19T19:17:21;12.50;99.90
51739;DHT22;37815;52.692;6.226;2023-03-19T19:22:28;12.50;99.90
51739;DHT22;37815;52.692;6.226;2023-03-19T19:27:29;12.50;99.90
51739;DHT22;37815;52.692;6.226;2023-03-19T19:32:30;12.40;99.90
51739;DHT22;37815;52.692;6.226;2023-03-19T19:37:31;12.40;99.90
51739;DHT22;37815;52.692;6.226;2023-03-19T19:42:32;12.40;99.90
51739;DHT22;37815;52.692;6.226;2023-03-19T19:47:32;12.40;99.90
51739;DHT22;37815;52.692;6.226;2023-03-19T19:52:35;12.40;99.90
51739;DHT22;37815;52.692;6.226;2023-03-19T19:57:37;12.40;99.90
51739;DHT22;37815;52.692;6.226;2023-03-19T20:02:39;12.40;99.90
51739;DHT22;37815;52.692;6.226;2023-03-19T20:07:40;12.40;99.90
51739;DHT22;37815;52.692;6.226;2023-03-19T20:12:42;12.30;99.90
51739;DHT22;37815;52.692;6.226;2023-03-19T20:17:44;12.30;99.90
51739;DHT22;37815;52.692;6.226;2023-03-19T20:22:46;12.30;99.90
51739;DHT22;37815;52.692;6.226;2023-03-19T20:27:49;12.30;99.90
51739;DHT22;37815;52.692;6.226;2023-03-19T20:32:51;12.30;99.90
51739;DHT22;37815;52.692;6.226;2023-03-19T20:37:54;12.30;99.90
51739;DHT22;37815;52.692;6.226;2023-03-19T20:42:55;12.30;99.90
51739;DHT22;37815;52.692;6.226;2023-03-19T20:47:56;12.20;99.90
51739;DHT22;37815;52.692;6.226;2023-03-19T20:52:58;12.20;99.90
51739;DHT22;37815;52.692;6.226;2023-03-19T20:58:11;12.20;99.90
51739;DHT22;37815;52.692;6.226;2023-03-19T21:03:17;12.20;99.90
51739;DHT22;37815;52.692;6.226;2023-03-19T21:08:38;12.20;99.90
51739;DHT22;37815;52.692;6.226;2023-03-19T21:13:41;12.20;99.90
51739;DHT22;37815;52.692;6.226;2023-03-19T21:18:41;12.20;99.90
51739;DHT22;37815;52.692;6.226;2023-03-19T21:23:50;12.20;99.90
51739;DHT22;37815;52.692;6.226;2023-03-19T21:28:57;12.10;99.90
51739;DHT22;37815;52.692;6.226;2023-03-19T21:33:58;12.10;99.90
51739;DHT22;37815;52.692;6.226;2023-03-19T21:38:59;12.10;99.90
51739;DHT22;37815;52.692;6.226;2023-03-19T21:44:12;12.10;99.90
51739;DHT22;37815;52.692;6.226;2023-03-19T21:49:14;12.10;99.90
51739;DHT22;37815;52.692;6.226;2023-03-19T21:54:15;12.10;99.90
51739;DHT22;37815;52.692;6.226;2023-03-19T21:59:22;12.10;99.90
51739;DHT22;37815;52.692;6.226;2023-03-19T22:04:25;12.00;99.90
51739;DHT22;37815;52.692;6.226;2023-03-19T22:09:26;12.00;99.90
51739;DHT22;37815;52.692;6.226;2023-03-19T22:14:26;12.10;99.90
51739;DHT22;37815;52.692;6.226;2023-03-19T22:19:27;12.00;99.90
51739;DHT22;37815;52.692;6.226;2023-03-19T22:24:28;12.00;99.90
51739;DHT22;37815;52.692;6.226;2023-03-19T22:29:30;12.00;99.90
51739;DHT22;37815;52.692;6.226;2023-03-19T22:34:32;12.00;99.90
51739;DHT22;37815;52.692;6.226;2023-03-19T22:39:32;12.00;99.90
51739;DHT22;37815;52.692;6.226;2023-03-19T22:44:33;12.00;99.90
51739;DHT22;37815;52.692;6.226;2023-03-19T22:49:33;12.00;99.90
51739;DHT22;37815;52.692;6.226;2023-03-19T22:54:34;11.90;99.90
51739;DHT22;37815;52.692;6.226;2023-03-19T22:59:35;11.90;99.90
51739;DHT22;37815;52.692;6.226;2023-03-19T23:04:36;11.90;99.90
51739;DHT22;37815;52.692;6.226;2023-03-19T23:09:38;11.90;99.90
51739;DHT22;37815;52.692;6.226;2023-03-19T23:14:39;11.90;99.90
51739;DHT22;37815;52.692;6.226;2023-03-19T23:19:39;11.90;99.90
51739;DHT22;37815;52.692;6.226;2023-03-19T23:24:40;11.80;99.90
51739;DHT22;37815;52.692;6.226;2023-03-19T23:29:42;11.80;99.90
51739;DHT22;37815;52.692;6.226;2023-03-19T23:34:45;11.90;99.90
51739;DHT22;37815;52.692;6.226;2023-03-19T23:39:45;11.80;99.90
51739;DHT22;37815;52.692;6.226;2023-03-19T23:44:48;11.80;99.90
51739;DHT22;37815;52.692;6.226;2023-03-19T23:49:49;11.80;99.90
51739;DHT22;37815;52.692;6.226;2023-03-19T23:54:50;11.80;99.90
51739;DHT22;37815;52.692;6.226;2023-03-19T23:59:52;11.80;99.90
